createdAt,value
2018-10-21T00:01:08.665Z,102319.68
2018-10-21T00:03:37.864Z,102321.39
2018-10-21T00:06:07.045Z,102309.48
2018-10-21T00:08:36.268Z,102305.50
2018-10-21T00:11:05.306Z,102311.81
2018-10-21T00:13:34.852Z,102301.09
2018-10-21T00:16:04.073Z,102297.52
2018-10-21T00:18:36.875Z,102298.52
2018-10-21T00:21:06.689Z,102299.06
2018-10-21T00:23:36.082Z,102297.36
2018-10-21T00:26:05.432Z,102301.20
2018-10-21T00:28:34.511Z,102306.13
2018-10-21T00:31:03.767Z,102298.85
2018-10-21T00:33:33.014Z,102294.38
2018-10-21T00:36:02.351Z,102291.78
2018-10-21T00:38:31.462Z,102291.42
2018-10-21T00:41:00.629Z,102286.95
2018-10-21T00:43:29.859Z,102286.47
2018-10-21T00:45:59.078Z,102293.27
2018-10-21T00:48:28.394Z,102293.87
2018-10-21T00:50:57.814Z,102291.00
2018-10-21T00:53:27.171Z,102291.20
2018-10-21T00:55:56.302Z,102286.80
2018-10-21T00:58:27.581Z,102288.06
2018-10-21T01:00:56.660Z,102288.59
2018-10-21T01:03:26.032Z,102287.20
2018-10-21T01:05:55.298Z,102288.10
2018-10-21T01:08:24.566Z,102293.25
2018-10-21T01:10:53.627Z,102294.05
2018-10-21T01:13:23.069Z,102300.55
2018-10-21T01:15:52.221Z,102306.12
2018-10-21T01:18:21.551Z,102305.56
2018-10-21T01:20:50.614Z,102307.26
2018-10-21T01:23:19.964Z,102296.27
2018-10-21T01:25:49.341Z,102288.73
2018-10-21T01:28:18.441Z,102294.78
2018-10-21T01:30:47.514Z,102290.02
2018-10-21T01:33:17.403Z,102291.66
2018-10-21T01:35:46.489Z,102293.41
2018-10-21T01:38:15.643Z,102289.28
2018-10-21T01:40:45.889Z,102284.81
2018-10-21T01:43:16.553Z,102287.05
2018-10-21T01:45:45.717Z,102287.94
2018-10-21T01:48:16.066Z,102290.50
2018-10-21T01:50:45.528Z,102287.30
2018-10-21T01:53:15.578Z,102292.60
2018-10-21T01:55:44.687Z,102293.28
2018-10-21T01:58:13.775Z,102297.94
2018-10-21T02:00:43.293Z,102293.85
2018-10-21T02:03:12.392Z,102297.62
2018-10-21T02:05:42.178Z,102296.66
2018-10-21T02:08:11.414Z,102296.73
2018-10-21T02:10:40.542Z,102303.27
2018-10-21T02:13:09.712Z,102291.17
2018-10-21T02:15:38.816Z,102281.66
2018-10-21T02:18:08.075Z,102286.28
2018-10-21T02:20:37.201Z,102284.18
2018-10-21T02:23:06.616Z,102288.76
2018-10-21T02:25:35.981Z,102287.36
2018-10-21T02:28:05.138Z,102286.56
2018-10-21T02:30:34.625Z,102279.62
2018-10-21T02:33:04.103Z,102272.77
2018-10-21T02:35:33.256Z,102277.72
2018-10-21T02:38:03.582Z,102272.70
2018-10-21T02:42:41.755Z,102268.61
2018-10-21T02:45:14.782Z,102267.84
2018-10-21T02:47:44.092Z,102263.13
2018-10-21T02:50:15.809Z,102267.10
2018-10-21T02:52:48.597Z,102273.14
2018-10-21T02:55:18.718Z,102267.91
2018-10-21T02:57:48.147Z,102270.94
2018-10-21T03:00:23.784Z,102269.23
2018-10-21T03:02:54.275Z,102268.98
2018-10-21T03:05:25.889Z,102271.92
2018-10-21T03:08:03.299Z,102267.46
2018-10-21T03:13:21.661Z,102261.12
2018-10-21T03:15:58.243Z,102262.55
2018-10-21T03:18:41.735Z,102253.80
2018-10-21T03:21:15.128Z,102263.20
2018-10-21T03:23:46.997Z,102264.81
2018-10-21T03:26:17.139Z,102267.05
2018-10-21T03:28:46.889Z,102266.84
2018-10-21T03:31:18.457Z,102266.92
2018-10-21T03:33:50.742Z,102276.73
2018-10-21T03:36:26.623Z,102272.69
2018-10-21T03:39:08.585Z,102268.97
2018-10-21T03:41:42.511Z,102259.05
2018-10-21T03:44:33.078Z,102256.13
2018-10-21T03:47:03.077Z,102259.00
2018-10-21T03:49:42.256Z,102250.04
2018-10-21T03:54:52.822Z,102249.88
2018-10-21T03:57:23.272Z,102250.78
2018-10-21T04:03:13.901Z,102251.65
2018-10-21T04:08:25.269Z,102258.41
2018-10-21T04:13:33.524Z,102256.66
2018-10-21T04:16:05.648Z,102250.37
2018-10-21T04:18:45.645Z,102253.87
2018-10-21T04:21:23.705Z,102244.78
2018-10-21T04:23:56.918Z,102243.09
2018-10-21T04:40:28.876Z,102231.31
2018-10-21T04:42:58.932Z,102235.67
2018-10-21T04:45:28.496Z,102222.29
2018-10-21T04:48:10.919Z,102227.12
2018-10-21T04:50:49.154Z,102215.98
2018-10-21T04:53:23.836Z,102210.14
2018-10-21T04:55:56.805Z,102210.99
2018-10-21T04:58:35.322Z,102216.93
2018-10-21T05:01:07.825Z,102216.56
2018-10-21T05:03:47.051Z,102215.50
2018-10-21T05:06:24.038Z,102217.39
2018-10-21T05:12:38.615Z,102211.48
2018-10-21T05:15:14.362Z,102213.06
2018-10-21T05:18:01.676Z,102219.44
2018-10-21T05:20:35.993Z,102217.48
2018-10-21T05:23:16.362Z,102210.70
2018-10-21T05:26:02.650Z,102212.03
2018-10-21T05:28:42.486Z,102210.92
2018-10-21T05:31:19.610Z,102208.48
2018-10-21T05:34:04.473Z,102204.72
2018-10-21T05:37:14.341Z,102204.12
2018-10-21T05:39:54.146Z,102201.53
2018-10-21T05:42:25.800Z,102202.92
2018-10-21T05:59:29.873Z,102224.33
2018-10-21T06:01:59.286Z,102222.53
2018-10-21T06:04:28.551Z,102223.25
2018-10-21T06:06:57.995Z,102219.68
2018-10-21T06:09:27.381Z,102217.63
2018-10-21T06:11:57.611Z,102222.83
2018-10-21T06:14:26.994Z,102228.23
2018-10-21T06:17:06.305Z,102227.53
2018-10-21T06:19:39.905Z,102228.39
2018-10-21T06:22:09.163Z,102232.33
2018-10-21T06:24:38.349Z,102234.94
2018-10-21T06:27:07.669Z,102239.39
2018-10-21T06:29:37.811Z,102245.49
2018-10-21T06:32:07.032Z,102237.27
2018-10-21T06:34:36.060Z,102249.38
2018-10-21T06:37:05.311Z,102243.34
2018-10-21T06:39:34.776Z,102245.23
2018-10-21T06:42:03.922Z,102244.55
2018-10-21T06:44:32.948Z,102246.48
2018-10-21T06:47:01.988Z,102255.64
2018-10-21T06:49:32.294Z,102255.18
2018-10-21T06:52:01.200Z,102253.73
2018-10-21T06:54:30.331Z,102251.67
2018-10-21T06:56:59.442Z,102259.26
2018-10-21T06:59:28.591Z,102257.03
2018-10-21T07:01:57.523Z,102256.45
2018-10-21T07:04:26.589Z,102258.98
2018-10-21T07:06:55.507Z,102267.92
2018-10-21T07:09:24.401Z,102259.95
2018-10-21T07:11:53.381Z,102263.66
2018-10-21T07:14:22.616Z,102260.00
2018-10-21T07:16:51.705Z,102260.00
2018-10-21T07:19:20.731Z,102259.50
2018-10-21T07:21:49.787Z,102253.95
2018-10-21T07:24:19.014Z,102259.98
2018-10-21T07:26:48.311Z,102259.58
2018-10-21T07:29:18.556Z,102260.19
2018-10-21T07:31:47.591Z,102259.11
2018-10-21T07:34:16.936Z,102258.23
2018-10-21T07:36:45.870Z,102257.36
2018-10-21T07:39:15.035Z,102256.48
2018-10-21T07:41:44.081Z,102261.99
2018-10-21T07:44:13.372Z,102264.95
2018-10-21T07:46:42.423Z,102270.30
2018-10-21T07:49:11.757Z,102270.97
2018-10-21T07:51:41.101Z,102271.66
2018-10-21T07:54:10.048Z,102273.03
2018-10-21T07:56:39.244Z,102279.74
2018-10-21T07:59:08.147Z,102281.27
2018-10-21T08:01:37.065Z,102272.58
2018-10-21T08:04:06.545Z,102276.81
2018-10-21T08:06:46.271Z,102281.69
2018-10-21T08:09:15.287Z,102291.60
2018-10-21T08:11:44.338Z,102292.29
2018-10-21T08:14:13.303Z,102290.26
2018-10-21T08:16:42.475Z,102291.79
2018-10-21T08:19:11.579Z,102288.42
2018-10-21T08:21:40.826Z,102293.94
2018-10-21T08:24:10.208Z,102293.25
2018-10-21T08:26:39.214Z,102295.94
2018-10-21T08:29:08.278Z,102297.09
2018-10-21T08:31:37.473Z,102294.72
2018-10-21T08:34:06.543Z,102298.25
2018-10-21T08:36:35.348Z,102297.44
2018-10-21T08:39:05.790Z,102302.98
2018-10-21T08:41:34.985Z,102298.63
2018-10-21T08:44:04.226Z,102298.28
2018-10-21T08:46:33.439Z,102301.12
2018-10-21T08:49:02.328Z,102300.62
2018-10-21T08:51:31.211Z,102300.12
2018-10-21T08:54:00.220Z,102304.98
2018-10-21T08:56:29.256Z,102301.77
2018-10-21T08:58:58.883Z,102305.30
2018-10-21T09:01:27.847Z,102299.59
2018-10-21T09:03:57.156Z,102305.27
2018-10-21T09:06:26.302Z,102301.73
2018-10-21T09:08:55.588Z,102300.05
2018-10-21T09:11:24.607Z,102302.55
2018-10-21T09:13:53.839Z,102297.72
2018-10-21T09:16:22.920Z,102295.19
2018-10-21T09:18:51.963Z,102288.82
2018-10-21T09:21:21.073Z,102292.66
2018-10-21T09:23:50.317Z,102293.77
2018-10-21T09:26:19.198Z,102295.61
2018-10-21T09:28:48.145Z,102295.23
2018-10-21T09:31:17.171Z,102289.62
2018-10-21T09:33:46.231Z,102290.95
2018-10-21T09:36:15.289Z,102296.62
2018-10-21T09:38:44.597Z,102294.78
2018-10-21T09:41:14.744Z,102292.40
2018-10-21T09:43:43.747Z,102288.63
2018-10-21T09:46:12.992Z,102284.69
2018-10-21T09:48:42.144Z,102281.98
2018-10-21T09:51:11.204Z,102273.17
2018-10-21T09:53:40.498Z,102272.46
2018-10-21T09:56:09.639Z,102277.06
2018-10-21T09:58:38.755Z,102274.61
2018-10-21T10:01:12.826Z,102266.03
2018-10-21T10:03:41.942Z,102268.10
2018-10-21T10:06:11.116Z,102268.38
2018-10-21T10:08:40.310Z,102268.64
2018-10-21T10:11:09.455Z,102257.77
2018-10-21T10:13:38.373Z,102264.68
2018-10-21T10:16:08.242Z,102252.62
2018-10-21T10:18:37.470Z,102250.77
2018-10-21T10:21:07.054Z,102251.55
2018-10-21T10:23:37.012Z,102247.08
2018-10-21T10:26:06.010Z,102241.79
2018-10-21T10:28:34.861Z,102247.74
2018-10-21T10:31:04.103Z,102240.98
2018-10-21T10:33:33.349Z,102234.91
2018-10-21T10:36:02.228Z,102231.94
2018-10-21T10:38:31.496Z,102229.83
2018-10-21T10:41:01.403Z,102223.66
2018-10-21T10:43:30.599Z,102224.96
2018-10-21T10:45:59.753Z,102217.31
2018-10-21T10:48:28.713Z,102216.47
2018-10-21T10:50:57.685Z,102215.70
2018-10-21T10:53:26.712Z,102215.78
2018-10-21T10:55:55.771Z,102211.93
2018-10-21T10:58:25.232Z,102208.43
2018-10-21T11:00:54.203Z,102201.48
2018-10-21T11:03:23.280Z,102201.99
2018-10-21T11:05:52.488Z,102197.74
2018-10-21T11:08:21.524Z,102187.43
2018-10-21T11:10:50.493Z,102184.52
2018-10-21T11:13:19.919Z,102182.84
2018-10-21T11:15:49.067Z,102176.33
2018-10-21T11:18:18.316Z,102169.02
2018-10-21T11:20:48.380Z,102172.22
2018-10-21T11:23:17.426Z,102168.39
2018-10-21T11:25:46.376Z,102161.72
2018-10-21T11:28:15.417Z,102161.70
2018-10-21T11:30:44.605Z,102164.63
2018-10-21T11:33:13.779Z,102156.70
2018-10-21T11:35:43.006Z,102153.78
2018-10-21T11:38:12.097Z,102160.50
2018-10-21T11:40:41.047Z,102150.83
2018-10-21T11:43:10.459Z,102154.06
2018-10-21T11:45:39.698Z,102155.09
2018-10-21T11:48:08.647Z,102149.80
2018-10-21T11:50:38.790Z,102148.67
2018-10-21T11:53:08.122Z,102145.55
2018-10-21T11:55:40.498Z,102137.03
2018-10-21T11:58:12.193Z,102143.70
2018-10-21T12:00:41.425Z,102134.23
2018-10-21T12:03:11.325Z,102131.23
2018-10-21T12:05:41.479Z,102122.48
2018-10-21T12:08:10.993Z,102120.22
2018-10-21T12:10:40.192Z,102121.69
2018-10-21T12:13:09.254Z,102118.98
2018-10-21T12:15:38.316Z,102114.94
2018-10-21T12:18:07.995Z,102114.93
2018-10-21T12:20:37.158Z,102112.91
2018-10-21T12:23:06.450Z,102107.58
2018-10-21T12:25:35.708Z,102108.70
2018-10-21T12:28:05.001Z,102111.56
2018-10-21T12:30:34.374Z,102104.37
2018-10-21T12:33:03.602Z,102100.59
2018-10-21T12:35:32.617Z,102096.16
2018-10-21T12:38:01.795Z,102087.20
2018-10-21T12:40:30.971Z,102086.41
2018-10-21T12:42:59.985Z,102078.98
2018-10-21T12:45:29.074Z,102075.94
2018-10-21T12:47:57.980Z,102072.80
2018-10-21T12:50:26.917Z,102069.52
2018-10-21T12:52:56.178Z,102069.75
2018-10-21T12:55:25.247Z,102071.22
2018-10-21T12:57:54.605Z,102062.39
2018-10-21T13:00:23.941Z,102060.13
2018-10-21T13:02:53.256Z,102066.63
2018-10-21T13:05:22.271Z,102065.12
2018-10-21T13:07:51.265Z,102056.70
2018-10-21T13:10:20.203Z,102053.17
2018-10-21T13:12:49.308Z,102050.42
2018-10-21T13:15:18.438Z,102044.41
2018-10-21T13:17:47.421Z,102040.53
2018-10-21T13:20:16.382Z,102038.59
2018-10-21T13:22:45.588Z,102038.44
2018-10-21T13:25:15.026Z,102035.75
2018-10-21T13:27:44.084Z,102036.78
2018-10-21T13:30:13.098Z,102033.09
2018-10-21T13:32:42.088Z,102034.77
2018-10-21T13:35:11.156Z,102022.23
2018-10-21T13:37:40.152Z,102016.81
2018-10-21T13:40:09.294Z,102014.73
2018-10-21T13:42:38.221Z,102009.77
2018-10-21T13:45:07.724Z,101999.33
2018-10-21T13:47:36.758Z,102002.13
2018-10-21T13:50:06.746Z,101996.82
2018-10-21T13:52:35.846Z,101994.12
2018-10-21T13:55:04.896Z,101987.78
2018-10-21T13:57:33.981Z,101981.83
2018-10-21T14:00:03.044Z,101991.56
2018-10-21T14:02:31.949Z,101981.24
2018-10-21T14:05:01.197Z,101976.89
2018-10-21T14:07:30.132Z,101966.31
2018-10-21T14:09:59.110Z,101970.76
2018-10-21T14:12:28.029Z,101964.02
2018-10-21T14:14:57.239Z,101971.44
2018-10-21T14:17:26.307Z,101959.92
2018-10-21T14:19:55.577Z,101957.77
2018-10-21T14:22:24.561Z,101956.11
2018-10-21T14:24:53.785Z,101960.04
2018-10-21T14:27:22.834Z,101963.69
2018-10-21T14:29:51.817Z,101961.42
2018-10-21T14:32:21.662Z,101954.32
2018-10-21T14:34:50.822Z,101947.14
2018-10-21T14:37:19.817Z,101947.60
2018-10-21T14:39:48.889Z,101955.46
2018-10-21T14:42:17.953Z,101948.89
2018-10-21T14:44:46.916Z,101954.17
2018-10-21T14:47:15.941Z,101951.49
2018-10-21T14:49:44.871Z,101949.63
2018-10-21T14:52:13.991Z,101948.67
2018-10-21T14:54:43.153Z,101940.92
2018-10-21T14:57:12.120Z,101939.64
2018-10-21T14:59:41.147Z,101938.61
2018-10-21T15:02:10.480Z,101935.82
2018-10-21T15:04:39.532Z,101931.09
2018-10-21T15:07:08.559Z,101926.19
2018-10-21T15:09:37.517Z,101929.65
2018-10-21T15:12:07.039Z,101927.50
2018-10-21T15:14:35.932Z,101926.67
2018-10-21T15:17:05.252Z,101920.08
2018-10-21T15:19:34.356Z,101918.45
2018-10-21T15:22:03.571Z,101914.05
2018-10-21T15:24:32.577Z,101913.52
2018-10-21T15:27:01.590Z,101905.83
2018-10-21T15:29:30.653Z,101906.12
2018-10-21T15:32:00.046Z,101905.01
2018-10-21T15:34:29.015Z,101912.48
2018-10-21T15:36:58.108Z,101901.72
2018-10-21T15:39:27.367Z,101910.66
2018-10-21T15:41:56.445Z,101913.30
2018-10-21T15:44:26.180Z,101914.36
2018-10-21T15:46:55.279Z,101921.60
2018-10-21T15:49:24.323Z,101921.72
2018-10-21T15:51:53.465Z,101919.28
2018-10-21T15:54:22.391Z,101924.48
2018-10-21T15:56:51.479Z,101922.60
2018-10-21T15:59:21.344Z,101925.86
2018-10-21T16:01:50.669Z,101924.09
2018-10-21T16:04:19.612Z,101921.73
2018-10-21T16:06:48.647Z,101919.57
2018-10-21T16:09:17.881Z,101919.39
2018-10-21T16:11:46.910Z,101923.60
2018-10-21T16:14:16.178Z,101918.37
2018-10-21T16:16:45.352Z,101912.84
2018-10-21T16:19:14.769Z,101925.00
2018-10-21T16:21:44.799Z,101923.06
2018-10-21T16:24:13.979Z,101925.39
2018-10-21T16:26:42.999Z,101926.41
2018-10-21T16:29:12.154Z,101927.38
2018-10-21T16:31:41.179Z,101927.94
2018-10-21T16:34:10.257Z,101924.65
2018-10-21T16:36:39.184Z,101926.47
2018-10-21T16:39:10.337Z,101924.75
2018-10-21T16:41:39.379Z,101923.22
2018-10-21T16:44:08.679Z,101922.97
2018-10-21T16:46:37.857Z,101919.38
2018-10-21T16:49:07.116Z,101922.13
2018-10-21T16:51:36.536Z,101924.20
2018-10-21T16:54:05.675Z,101924.27
2018-10-21T16:56:34.597Z,101928.45
2018-10-21T16:59:03.700Z,101934.20
2018-10-21T17:01:32.677Z,101927.70
2018-10-21T17:04:01.729Z,101926.38
2018-10-21T17:06:31.869Z,101931.08
2018-10-21T17:09:01.343Z,101925.92
2018-10-21T17:11:31.335Z,101929.44
2018-10-21T17:14:00.783Z,101931.95
2018-10-21T17:16:30.090Z,101938.45
2018-10-21T17:18:59.201Z,101935.13
2018-10-21T17:21:28.489Z,101939.13
2018-10-21T17:23:57.656Z,101939.13
2018-10-21T17:26:26.805Z,101943.48
2018-10-21T17:28:56.783Z,101939.96
2018-10-21T17:31:26.911Z,101942.12
2018-10-21T17:33:56.171Z,101944.42
2018-10-21T17:36:25.452Z,101944.27
2018-10-21T17:38:54.625Z,101944.42
2018-10-21T17:41:23.965Z,101940.42
2018-10-21T17:43:53.050Z,101941.73
2018-10-21T17:46:22.683Z,101947.92
2018-10-21T17:48:52.395Z,101946.73
2018-10-21T17:51:21.650Z,101950.22
2018-10-21T17:53:50.907Z,101943.38
2018-10-21T17:56:20.179Z,101944.05
2018-10-21T17:58:49.331Z,101941.53
2018-10-21T18:01:18.896Z,101942.17
2018-10-21T18:03:48.044Z,101941.16
2018-10-21T18:06:17.424Z,101938.80
2018-10-21T18:08:46.787Z,101940.98
2018-10-21T18:11:16.180Z,101943.13
2018-10-21T18:13:45.513Z,101939.78
2018-10-21T18:16:15.117Z,101938.28
2018-10-21T18:18:44.488Z,101944.28
2018-10-21T18:21:13.839Z,101946.59
2018-10-21T18:23:43.029Z,101944.24
2018-10-21T18:26:12.371Z,101946.91
2018-10-21T18:28:41.649Z,101951.75
2018-10-21T18:31:10.983Z,101950.24
2018-10-21T18:33:40.320Z,101952.91
2018-10-21T18:36:09.751Z,101946.11
2018-10-21T18:38:39.073Z,101940.28
2018-10-21T18:41:08.405Z,101936.95
2018-10-21T18:43:37.652Z,101934.28
2018-10-21T18:46:07.059Z,101936.28
2018-10-21T18:48:36.366Z,101938.95
2018-10-21T18:51:06.085Z,101938.11
2018-10-21T18:53:35.523Z,101937.92
2018-10-21T18:56:04.812Z,101942.91
2018-10-21T18:58:34.150Z,101940.91
2018-10-21T19:01:04.142Z,101938.59
2018-10-21T19:03:33.605Z,101938.24
2018-10-21T19:06:03.034Z,101936.20
2018-10-21T19:08:32.148Z,101941.85
2018-10-21T19:11:01.511Z,101942.83
2018-10-21T19:13:30.957Z,101939.84
2018-10-21T19:16:00.125Z,101941.17
2018-10-21T19:18:29.409Z,101937.63
2018-10-21T19:21:00.203Z,101937.80
2018-10-21T19:23:29.889Z,101938.77
2018-10-21T19:26:00.226Z,101939.92
2018-10-21T19:28:29.649Z,101942.41
2018-10-21T19:30:58.941Z,101938.41
2018-10-21T19:33:28.243Z,101937.52
2018-10-21T19:35:57.542Z,101943.33
2018-10-21T19:38:26.855Z,101942.97
2018-10-21T19:40:56.192Z,101945.27
2018-10-21T19:43:25.576Z,101941.27
2018-10-21T19:45:55.406Z,101942.55
2018-10-21T19:48:24.718Z,101939.70
2018-10-21T19:50:54.016Z,101947.68
2018-10-21T19:53:23.332Z,101948.83
2018-10-21T19:55:52.757Z,101940.66
2018-10-21T19:58:21.890Z,101948.52
2018-10-21T20:00:51.208Z,101946.88
2018-10-21T20:03:20.234Z,101954.59
2018-10-21T20:05:49.684Z,101950.41
2018-10-21T20:08:18.929Z,101944.38
2018-10-21T20:10:47.945Z,101945.97
2018-10-21T20:13:17.535Z,101939.38
2018-10-21T20:15:46.515Z,101937.42
2018-10-21T20:18:15.668Z,101940.48
2018-10-21T20:20:44.942Z,101942.13
2018-10-21T20:23:14.065Z,101945.94
2018-10-21T20:25:43.072Z,101943.11
2018-10-21T20:28:12.223Z,101943.42
2018-10-21T20:30:41.171Z,101937.72
2018-10-21T20:33:10.445Z,101941.03
2018-10-21T20:35:39.627Z,101943.01
2018-10-21T20:38:08.739Z,101936.64
2018-10-21T20:40:37.926Z,101934.41
2018-10-21T20:43:07.028Z,101936.22
2018-10-21T20:45:36.254Z,101943.84
2018-10-21T20:48:05.447Z,101945.48
2018-10-21T20:50:34.694Z,101940.91
2018-10-21T20:53:03.794Z,101943.35
2018-10-21T20:55:33.039Z,101944.80
2018-10-21T20:58:02.215Z,101951.79
2018-10-21T21:00:31.074Z,101955.06
2018-10-21T21:03:00.222Z,101955.85
2018-10-21T21:05:29.285Z,101957.64
2018-10-21T21:07:58.570Z,101965.81
2018-10-21T21:10:27.590Z,101961.25
2018-10-21T21:12:57.379Z,101960.89
2018-10-21T21:15:26.313Z,101960.70
2018-10-21T21:17:55.622Z,101962.73
2018-10-21T21:20:24.592Z,101967.11
2018-10-21T21:22:53.927Z,101962.10
2018-10-21T21:25:22.971Z,101957.08
2018-10-21T21:27:51.992Z,101963.23
2018-10-21T21:30:21.153Z,101961.88
2018-10-21T21:32:50.033Z,101966.05
2018-10-21T21:35:19.049Z,101960.49
2018-10-21T21:37:48.191Z,101962.31
2018-10-21T21:40:17.319Z,101961.58
2018-10-21T21:42:46.491Z,101968.21
2018-10-21T21:45:15.464Z,101962.78
2018-10-21T21:47:45.708Z,101968.88
2018-10-21T21:50:14.711Z,101964.64
2018-10-21T21:52:43.990Z,101969.98
2018-10-21T21:55:12.952Z,101967.61
2018-10-21T21:57:42.105Z,101977.28
2018-10-21T22:00:13.528Z,101972.61
2018-10-21T22:02:42.600Z,101968.09
2018-10-21T22:05:11.679Z,101969.93
2018-10-21T22:07:41.167Z,101965.55
2018-10-21T22:10:12.340Z,101962.80
2018-10-21T22:12:41.530Z,101962.80
2018-10-21T22:15:10.799Z,101958.62
2018-10-21T22:17:40.559Z,101953.05
2018-10-21T22:20:09.973Z,101960.41
2018-10-21T22:22:38.910Z,101959.70
2018-10-21T22:25:07.871Z,101958.00
2018-10-21T22:27:36.858Z,101955.31
2018-10-21T22:30:07.095Z,101951.94
2018-10-21T22:32:36.203Z,101958.98
2018-10-21T22:35:05.971Z,101959.62
2018-10-21T22:37:35.200Z,101949.86
2018-10-21T22:40:04.250Z,101945.50
2018-10-21T22:42:33.240Z,101940.84
2018-10-21T22:45:02.381Z,101941.26
2018-10-21T22:47:31.248Z,101948.25
2018-10-21T22:50:00.595Z,101949.19
2018-10-21T22:52:29.511Z,101951.64
2018-10-21T22:54:58.685Z,101950.38
2018-10-21T22:57:27.501Z,101949.09
2018-10-21T22:59:56.579Z,101953.42
2018-10-21T23:02:25.474Z,101953.06
2018-10-21T23:04:54.416Z,101960.55
2018-10-21T23:07:23.331Z,101958.99
2018-10-21T23:09:52.480Z,101963.44
2018-10-21T23:12:21.331Z,101962.22
2018-10-21T23:14:50.297Z,101968.67
2018-10-21T23:17:19.254Z,101968.95
2018-10-21T23:19:50.459Z,101972.25
2018-10-21T23:22:19.583Z,101969.34
2018-10-21T23:24:48.589Z,101967.50
2018-10-21T23:27:17.637Z,101972.47
2018-10-21T23:29:46.712Z,101969.27
2018-10-21T23:32:15.795Z,101965.52
2018-10-21T23:34:44.692Z,101961.28
2018-10-21T23:37:13.531Z,101954.72
2018-10-21T23:39:42.457Z,101953.31
2018-10-21T23:42:11.441Z,101954.65
2018-10-21T23:44:41.164Z,101951.59
2018-10-21T23:47:10.106Z,101949.95
2018-10-21T23:49:39.062Z,101947.06
2018-10-21T23:52:08.756Z,101951.73
2018-10-21T23:54:37.576Z,101947.34
2018-10-21T23:57:07.606Z,101947.14
2018-10-21T23:59:37.094Z,101944.42
